首页
METAR-TAF:

METAR-TAF

机场 :

麦卡伦, 得克萨斯州, 美国

纬度: 26-10-47N, 经度: 098-14-40W, 海拔: 32米

当前天气观测

该预报发布于53分钟前的16:53 UTC
风速7节,风向东转东南
温度 31°C
湿度 75%
气压 1014 hPa
能見度: 16.1公里
少量云层高于3300英尺
散云层高于5500英尺
多云层高于7000英尺

METAR: KMFE 241653Z 12007KT 10SM FEW033 SCT055 BKN070 31/26 A2993 RMK AO2 RAB39E51 SLP134 P0001 T03060261

时间: 12:46 (17:46 UTC)

预报

该预报发布于21分钟前的17:25 UTC
预报有效从24日的 18点(UTC)到 25日的 18点(UTC)
风速6节,风向东转东南
能見度: 10公里
散云层高于8000英尺
附近有阵雨
从 25日的 0200点(UTC)
风速7节,风向东转东南
能見度: 10公里
多云层高于5000英尺
从 25日的 1300点(UTC)
风速8节,风向东南
能見度: 10公里
散云层高于5000英尺

TAF: KMFE 241725Z 2418/2518 12006KT P6SM VCSH SCT080 FM250200 11007KT P6SM BKN050 FM251300 14008KT P6SM SCT050

超过4000个机场的气象观测和天气预报(METAR&TAF报告)。

可查询的气象台以黄色和红色小点在地图上表示。

将鼠标移到小点上方,可查看气象台名称。

然后点击查看天气观测和预报。

如需切换地图:点击带黑十字的绿色按钮放大地图;点击带横线的绿色按钮缩小地图;或者点击绿色箭头查看邻近地区的地图。


METAR-TAF: